Time;durP1;ratioP1;P1;durP2;ratioP2;P2;SDS_P1;SDS_P2;PMS_P1;PMS_P2;Temp;Humidity;BMP_temperature;BMP_pressure;BME280_temperature;BME280_humidity;BME280_pressure;Samples;Min_cycle;Max_cycle;Signal;HPM_P1;HPM_P2
2024/05/02 00:00:34;;;;;;;;;;;;;;;;;;5305599;26;19930;-76
2024/05/02 00:03:03;;;;;;;;;;;;;;;;;;5305688;27;19930;-76
2024/05/02 00:05:31;;;;;;;;;;;;;;;;;;5304929;27;19938;-78
2024/05/02 00:08:00;;;;;;;;;;;;;;;;;;5305610;26;19938;-79
2024/05/02 00:10:29;;;;;;;;;;;;;;;;;;5306715;26;20274;-78
2024/05/02 00:12:58;;;;;;;;;;;;;;;;;;5305424;27;19938;-77
2024/05/02 00:15:27;;;;;;;;;;;;;;;;;;5298948;26;19941;-77
2024/05/02 00:17:55;;;;;;;;;;;;;;;;;;5305010;26;19931;-77
2024/05/02 00:20:24;;;;;;;;;;;;;;;;;;5304055;26;19938;-76
2024/05/02 00:22:53;;;;;;;;;;;;;;;;;;5304360;27;19930;-77
2024/05/02 00:25:21;;;;;;;;;;;;;;;;;;5305899;26;19931;-78
2024/05/02 00:27:50;;;;;;;;;;;;;;;;;;5304903;26;19946;-77
2024/05/02 00:30:19;;;;;;;;;;;;;;;;;;5304960;26;19934;-79
2024/05/02 00:32:47;;;;;;;;;;;;;;;;;;5306153;27;19931;-78
2024/05/02 00:35:16;;;;;;;;;;;;;;;;;;5306625;27;19949;-77
2024/05/02 00:37:45;;;;;;;;;;;;;;;;;;5306244;27;19950;-82
2024/05/02 00:40:14;;;;;;;;;;;;;;;;;;5307098;26;20385;-80
2024/05/02 00:42:42;;;;;;;;;;;;;;;;;;5301294;27;19931;-80
2024/05/02 00:45:11;;;;;;;;;;;;;;;;;;5305347;27;20067;-78
2024/05/02 00:47:40;;;;;;;;;;;;;;;;;;5306533;26;19931;-79
2024/05/02 00:50:09;;;;;;;;;;;;;;;;;;5305619;26;19938;-76
2024/05/02 00:52:37;;;;;;;;;;;;;;;;;;5306004;26;19937;-78
2024/05/02 00:55:06;;;;;;;;;;;;;;;;;;5306737;27;19930;-83
2024/05/02 00:57:35;;;;;;;;;;;;;;;;;;5311949;27;19982;-83
2024/05/02 01:00:03;;;;;;;;;;;;;;;;;;5310451;27;20373;-83
2024/05/02 01:02:32;;;;;;;;;;;;;;;;;;5309869;27;19931;-83
2024/05/02 01:05:01;;;;;;;;;;;;;;;;;;5306976;27;19931;-81
2024/05/02 01:07:30;;;;;;;;;;;;;;;;;;5306715;26;19930;-82
2024/05/02 01:09:59;;;;;;;;;;;;;;;;;;5305759;26;20377;-79
2024/05/02 01:12:27;;;;;;;;;;;;;;;;;;5306520;27;19938;-81
2024/05/02 01:14:56;;;;;;;;;;;;;;;;;;5305917;26;19937;-80
2024/05/02 01:17:25;;;;;;;;;;;;;;;;;;5307289;27;19938;-80
2024/05/02 01:19:53;;;;;;;;;;;;;;;;;;5307044;27;19930;-82
2024/05/02 01:22:22;;;;;;;;;;;;;;;;;;5309722;27;19930;-79
2024/05/02 01:24:51;;;;;;;;;;;;;;;;;;5309082;27;19942;-82
2024/05/02 01:27:19;;;;;;;;;;;;;;;;;;5309428;27;19930;-81
2024/05/02 01:29:48;;;;;;;;;;;;;;;;;;5311886;27;19941;-88
2024/05/02 01:32:17;;;;;;;;;;;;;;;;;;5312763;27;19938;-82
2024/05/02 01:34:45;;;;;;;;;;;;;;;;;;5312620;27;19930;-81
2024/05/02 01:37:14;;;;;;;;;;;;;;;;;;5311303;27;19938;-81
2024/05/02 01:39:43;;;;;;;;;;;;;;;;;;5311872;27;19931;-84
2024/05/02 01:42:12;;;;;;;;;;;;;;;;;;5311864;27;19938;-82
2024/05/02 01:44:40;;;;;;;;;;;;;;;;;;5288984;27;19935;-81
2024/05/02 01:47:09;;;;;;;;;;;;;;;;;;5311214;27;19938;-82
2024/05/02 01:49:38;;;;;;;;;;;;;;;;;;5311353;27;19931;-81
2024/05/02 01:52:06;;;;;;;;;;;;;;;;;;5309601;26;20018;-82
2024/05/02 01:54:35;;;;;;;;;;;;;;;;;;5310429;27;19931;-81
2024/05/02 01:57:04;;;;;;;;;;;;;;;;;;5311792;27;19934;-81
2024/05/02 01:59:32;;;;;;;;;;;;;;;;;;5311562;26;19930;-82
2024/05/02 02:02:01;;;;;;;;;;;;;;;;;;5310791;26;19930;-81
2024/05/02 02:04:30;;;;;;;;;;;;;;;;;;5308507;27;19942;-80
2024/05/02 02:06:58;;;;;;;;;;;;;;;;;;5311116;27;19930;-81
2024/05/02 02:09:27;;;;;;;;;;;;;;;;;;5308818;27;19938;-81
2024/05/02 02:11:56;;;;;;;;;;;;;;;;;;5314301;27;19937;-82
2024/05/02 02:14:25;;;;;;;;;;;;;;;;;;5310828;26;19930;-81
2024/05/02 02:16:53;;;;;;;;;;;;;;;;;;5311482;26;19937;-81
2024/05/02 02:19:22;;;;;;;;;;;;;;;;;;5312365;26;19930;-83
2024/05/02 02:21:51;;;;;;;;;;;;;;;;;;5310782;27;19938;-82
2024/05/02 02:24:20;;;;;;;;;;;;;;;;;;5311052;26;19931;-82
2024/05/02 02:26:48;;;;;;;;;;;;;;;;;;5305931;27;20388;-82
2024/05/02 02:29:17;;;;;;;;;;;;;;;;;;5310464;27;19930;-85
2024/05/02 02:31:46;;;;;;;;;;;;;;;;;;5306419;26;20393;-81
2024/05/02 02:34:14;;;;;;;;;;;;;;;;;;5310256;27;20769;-82
2024/05/02 02:36:43;;;;;;;;;;;;;;;;;;5308237;27;19938;-83
2024/05/02 02:39:12;;;;;;;;;;;;;;;;;;5309301;27;20390;-82
2024/05/02 02:41:40;;;;;;;;;;;;;;;;;;5310524;26;19930;-84
2024/05/02 02:44:09;;;;;;;;;;;;;;;;;;5307595;27;19935;-83
2024/05/02 02:46:38;;;;;;;;;;;;;;;;;;5308858;27;19938;-83
2024/05/02 02:49:07;;;;;;;;;;;;;;;;;;5308972;27;19931;-82
2024/05/02 02:51:35;;;;;;;;;;;;;;;;;;5309449;27;19938;-81
2024/05/02 02:54:04;;;;;;;;;;;;;;;;;;5308369;27;19941;-80
2024/05/02 02:56:33;;;;;;;;;;;;;;;;;;5309566;26;20369;-80
2024/05/02 02:59:01;;;;;;;;;;;;;;;;;;5305543;27;19949;-79
2024/05/02 03:01:30;;;;;;;;;;;;;;;;;;5308218;27;19931;-81
2024/05/02 03:03:59;;;;;;;;;;;;;;;;;;5309041;27;20812;-82
2024/05/02 03:06:27;;;;;;;;;;;;;;;;;;5310058;26;20380;-82
2024/05/02 03:08:56;;;;;;;;;;;;;;;;;;5308901;27;19931;-83
2024/05/02 03:11:25;;;;;;;;;;;;;;;;;;5310059;26;20413;-83
2024/05/02 03:13:53;;;;;;;;;;;;;;;;;;5308626;27;19938;-83
2024/05/02 03:16:22;;;;;;;;;;;;;;;;;;5311034;26;20262;-81
2024/05/02 03:18:51;;;;;;;;;;;;;;;;;;5311958;27;19934;-82
2024/05/02 03:21:19;;;;;;;;;;;;;;;;;;5308840;26;20269;-80
2024/05/02 03:23:48;;;;;;;;;;;;;;;;;;5312545;27;20308;-82
2024/05/02 03:26:17;;;;;;;;;;;;;;;;;;5311160;26;20488;-82
2024/05/02 03:28:46;;;;;;;;;;;;;;;;;;5311402;26;19930;-82
2024/05/02 03:31:14;;;;;;;;;;;;;;;;;;5311445;27;19935;-82
2024/05/02 03:33:43;;;;;;;;;;;;;;;;;;5310369;26;19930;-83
2024/05/02 03:36:12;;;;;;;;;;;;;;;;;;5311393;26;19938;-88
2024/05/02 03:38:41;;;;;;;;;;;;;;;;;;5305057;27;19930;-81
2024/05/02 03:41:09;;;;;;;;;;;;;;;;;;5307829;26;19930;-81
2024/05/02 03:43:38;;;;;;;;;;;;;;;;;;5304022;27;19930;-82
2024/05/02 03:46:09;;;;;;;;;;;;;;;;;;5309091;27;19945;-79
2024/05/02 03:48:37;;;;;;;;;;;;;;;;;;5297556;27;19939;-81
2024/05/02 03:51:06;;;;;;;;;;;;;;;;;;5307575;27;19931;-81
2024/05/02 03:53:35;;;;;;;;;;;;;;;;;;5296904;27;19934;-82
2024/05/02 03:56:04;;;;;;;;;;;;;;;;;;5295364;27;19932;-81
2024/05/02 03:58:32;;;;;;;;;;;;;;;;;;5296946;27;19976;-82
2024/05/02 04:01:01;;;;;;;;;;;;;;;;;;5305877;27;19940;-81
2024/05/02 04:03:30;;;;;;;;;;;;;;;;;;5307206;27;19931;-83
2024/05/02 04:05:58;;;;;;;;;;;;;;;;;;5307620;27;20370;-81
2024/05/02 04:08:27;;;;;;;;;;;;;;;;;;5308480;26;19931;-79
2024/05/02 04:10:57;;;;;;;;;;;;;;;;;;5309060;26;19934;-77
2024/05/02 04:13:25;;;;;;;;;;;;;;;;;;5308174;27;19938;-81
2024/05/02 04:15:54;;;;;;;;;;;;;;;;;;5309958;27;19938;-83
2024/05/02 04:18:23;;;;;;;;;;;;;;;;;;5309962;26;19941;-82
2024/05/02 04:20:52;;;;;;;;;;;;;;;;;;5310361;27;19938;-79
2024/05/02 04:23:20;;;;;;;;;;;;;;;;;;5310388;26;19934;-83
2024/05/02 04:25:49;;;;;;;;;;;;;;;;;;5309814;26;19937;-83
2024/05/02 04:28:18;;;;;;;;;;;;;;;;;;5306790;27;19931;-79
2024/05/02 04:30:46;;;;;;;;;;;;;;;;;;5310406;27;20064;-79
2024/05/02 04:33:15;;;;;;;;;;;;;;;;;;5309547;26;19946;-82
2024/05/02 04:35:44;;;;;;;;;;;;;;;;;;5308854;27;19930;-78
2024/05/02 04:38:13;;;;;;;;;;;;;;;;;;5295705;27;19934;-81
2024/05/02 04:40:41;;;;;;;;;;;;;;;;;;5309153;26;20395;-84
2024/05/02 04:43:10;;;;;;;;;;;;;;;;;;5308274;27;19935;-83
2024/05/02 04:45:39;;;;;;;;;;;;;;;;;;5307996;26;19931;-82
2024/05/02 04:48:07;;;;;;;;;;;;;;;;;;5309392;27;19931;-82
2024/05/02 04:50:36;;;;;;;;;;;;;;;;;;5309041;27;19938;-81
2024/05/02 04:53:05;;;;;;;;;;;;;;;;;;5306487;27;19931;-83
2024/05/02 04:55:33;;;;;;;;;;;;;;;;;;5311379;27;19938;-83
2024/05/02 04:58:02;;;;;;;;;;;;;;;;;;5310641;27;19931;-79
2024/05/02 05:00:31;;;;;;;;;;;;;;;;;;5309719;27;20026;-80
2024/05/02 05:02:59;;;;;;;;;;;;;;;;;;5309133;27;19931;-81
2024/05/02 05:05:28;;;;;;;;;;;;;;;;;;5306506;27;19947;-82
2024/05/02 05:07:57;;;;;;;;;;;;;;;;;;5308696;26;19934;-81
2024/05/02 05:10:26;;;;;;;;;;;;;;;;;;5307771;27;19938;-82
2024/05/02 05:12:55;;;;;;;;;;;;;;;;;;5307711;26;19966;-82
2024/05/02 05:15:23;;;;;;;;;;;;;;;;;;5307668;27;20000;-77
2024/05/02 05:17:52;;;;;;;;;;;;;;;;;;5308666;27;19981;-83
2024/05/02 05:20:21;;;;;;;;;;;;;;;;;;5310869;27;20003;-79
2024/05/02 05:22:50;;;;;;;;;;;;;;;;;;5313228;26;19931;-83
2024/05/02 05:25:19;;;;;;;;;;;;;;;;;;5312836;27;20378;-80
2024/05/02 05:27:48;;;;;;;;;;;;;;;;;;5307052;27;19994;-84
2024/05/02 05:30:17;;;;;;;;;;;;;;;;;;5305447;26;19938;-80
2024/05/02 05:32:46;;;;;;;;;;;;;;;;;;5302942;26;20433;-80
2024/05/02 05:35:16;;;;;;;;;;;;;;;;;;5305006;26;19938;-78
2024/05/02 05:37:44;;;;;;;;;;;;;;;;;;5305546;27;19930;-78
2024/05/02 05:40:13;;;;;;;;;;;;;;;;;;5305472;27;19930;-71
2024/05/02 05:42:42;;;;;;;;;;;;;;;;;;5306223;27;19938;-69
2024/05/02 05:45:11;;;;;;;;;;;;;;;;;;5306415;27;20006;-70
2024/05/02 05:47:40;;;;;;;;;;;;;;;;;;5297877;26;19935;-71
2024/05/02 05:50:08;;;;;;;;;;;;;;;;;;5293416;27;19931;-71
2024/05/02 05:52:37;;;;;;;;;;;;;;;;;;5305928;26;19938;-69
2024/05/02 05:55:06;;;;;;;;;;;;;;;;;;5300514;27;19942;-69
2024/05/02 05:57:42;;;;;;;;;;;;;;;;;;5303318;27;19931;-69
2024/05/02 06:00:11;;;;;;;;;;;;;;;;;;5303883;27;19930;-69
2024/05/02 06:02:39;;;;;;;;;;;;;;;;;;5303151;27;19946;-71
2024/05/02 06:05:08;;;;;;;;;;;;;;;;;;5304212;26;19931;-73
2024/05/02 06:07:37;;;;;;;;;;;;;;;;;;5298324;26;19931;-71
2024/05/02 06:10:05;;;;;;;;;;;;;;;;;;5311991;26;19931;-71
2024/05/02 06:12:34;;;;;;;;;;;;;;;;;;5307496;26;20369;-71
2024/05/02 06:15:03;;;;;;;;;;;;;;;;;;5305751;26;20004;-71
2024/05/02 06:17:32;;;;;;;;;;;;;;;;;;5304914;26;20373;-71
2024/05/02 06:20:00;;;;;;;;;;;;;;;;;;5303925;27;19941;-69
2024/05/02 06:22:29;;;;;;;;;;;;;;;;;;5302454;27;20384;-70
2024/05/02 06:24:58;;;;;;;;;;;;;;;;;;5296961;27;20436;-69
2024/05/02 06:27:27;;;;;;;;;;;;;;;;;;5308492;26;19937;-70
2024/05/02 06:29:56;;;;;;;;;;;;;;;;;;5304904;27;19937;-71
2024/05/02 06:32:25;;;;;;;;;;;;;;;;;;5303928;27;19934;-71
2024/05/02 06:34:54;;;;;;;;;;;;;;;;;;5304790;26;19930;-71
2024/05/02 06:37:22;;;;;;;;;;;;;;;;;;5301622;27;20379;-71
2024/05/02 06:39:51;;;;;;;;;;;;;;;;;;5300667;26;19931;-68
2024/05/02 06:42:20;;;;;;;;;;;;;;;;;;5302469;27;19937;-69
2024/05/02 06:44:48;;;;;;;;;;;;;;;;;;5305341;27;19930;-69
2024/05/02 06:47:17;;;;;;;;;;;;;;;;;;5304090;27;20262;-70
2024/05/02 06:49:46;;;;;;;;;;;;;;;;;;5302283;26;20410;-70
2024/05/02 06:52:15;;;;;;;;;;;;;;;;;;5301242;26;19938;-69
2024/05/02 06:54:43;;;;;;;;;;;;;;;;;;5302209;26;20025;-70
2024/05/02 06:57:12;;;;;;;;;;;;;;;;;;5300506;26;20261;-70
2024/05/02 06:59:41;;;;;;;;;;;;;;;;;;5301656;26;20471;-69
2024/05/02 07:02:09;;;;;;;;;;;;;;;;;;5302543;26;19938;-71
2024/05/02 07:04:38;;;;;;;;;;;;;;;;;;5304584;26;19938;-70
2024/05/02 07:07:07;;;;;;;;;;;;;;;;;;5298282;26;19949;-70
2024/05/02 07:09:35;;;;;;;;;;;;;;;;;;5302405;26;19937;-70
2024/05/02 07:12:04;;;;;;;;;;;;;;;;;;5301605;27;20263;-69
2024/05/02 07:14:33;;;;;;;;;;;;;;;;;;5307695;26;19938;-69
2024/05/02 07:17:01;;;;;;;;;;;;;;;;;;5303227;26;19931;-68
2024/05/02 07:19:30;;;;;;;;;;;;;;;;;;5301806;26;19931;-67
2024/05/02 07:21:59;;;;;;;;;;;;;;;;;;5316944;26;19981;-68
2024/05/02 07:24:28;;;;;;;;;;;;;;;;;;5303396;26;19941;-71
2024/05/02 07:26:56;;;;;;;;;;;;;;;;;;5298196;26;19946;-69
2024/05/02 07:29:25;;;;;;;;;;;;;;;;;;5311694;26;20010;-69
2024/05/02 07:31:54;;;;;;;;;;;;;;;;;;5302977;26;19938;-69
2024/05/02 07:34:22;;;;;;;;;;;;;;;;;;5299639;27;19930;-69
2024/05/02 07:36:51;;;;;;;;;;;;;;;;;;5302253;26;20322;-69
2024/05/02 07:39:20;;;;;;;;;;;;;;;;;;5300774;26;19931;-69
2024/05/02 07:41:48;;;;;;;;;;;;;;;;;;5301635;26;19930;-70
2024/05/02 07:44:17;;;;;;;;;;;;;;;;;;5309411;26;19946;-69
2024/05/02 07:46:46;;;;;;;;;;;;;;;;;;5312984;26;20286;-67
2024/05/02 07:49:15;;;;;;;;;;;;;;;;;;5302213;27;19930;-71
2024/05/02 07:51:43;;;;;;;;;;;;;;;;;;5299256;26;19950;-70
2024/05/02 07:54:12;;;;;;;;;;;;;;;;;;5308171;26;20269;-73
2024/05/02 07:56:41;;;;;;;;;;;;;;;;;;5307264;26;20771;-72
2024/05/02 07:59:09;;;;;;;;;;;;;;;;;;5310065;26;19930;-72
2024/05/02 08:01:38;;;;;;;;;;;;;;;;;;5301708;26;19935;-74
2024/05/02 08:04:07;;;;;;;;;;;;;;;;;;5300800;26;19941;-72
2024/05/02 08:06:36;;;;;;;;;;;;;;;;;;5303235;27;20392;-68
2024/05/02 08:09:05;;;;;;;;;;;;;;;;;;5305718;26;19938;-71
2024/05/02 08:11:33;;;;;;;;;;;;;;;;;;5305987;26;20042;-71
2024/05/02 08:14:02;;;;;;;;;;;;;;;;;;5313562;26;20339;-72
2024/05/02 08:16:31;;;;;;;;;;;;;;;;;;5300138;26;19930;-73
2024/05/02 08:18:59;;;;;;;;;;;;;;;;;;5304339;26;19930;-73
2024/05/02 08:21:28;;;;;;;;;;;;;;;;;;5303080;26;19942;-71
2024/05/02 08:23:57;;;;;;;;;;;;;;;;;;5302249;27;19931;-75
2024/05/02 08:26:25;;;;;;;;;;;;;;;;;;5300139;27;19931;-76
2024/05/02 08:28:54;;;;;;;;;;;;;;;;;;5299587;26;19931;-72
2024/05/02 08:31:23;;;;;;;;;;;;;;;;;;5304557;26;19937;-72
2024/05/02 08:33:51;;;;;;;;;;;;;;;;;;5299449;27;20372;-70
2024/05/02 08:36:21;;;;;;;;;;;;;;;;;;5303444;26;19938;-71
2024/05/02 08:38:49;;;;;;;;;;;;;;;;;;5305826;27;19938;-77
2024/05/02 08:41:18;;;;;;;;;;;;;;;;;;5329180;26;19934;-77
2024/05/02 08:43:47;;;;;;;;;;;;;;;;;;5330101;26;19930;-74
2024/05/02 08:46:15;;;;;;;;;;;;;;;;;;5299010;26;19942;-71
2024/05/02 08:48:44;;;;;;;;;;;;;;;;;;5307605;26;19949;-71
2024/05/02 08:51:13;;;;;;;;;;;;;;;;;;5308338;26;19950;-70
2024/05/02 08:53:41;;;;;;;;;;;;;;;;;;5309876;26;19930;-71
2024/05/02 08:56:10;;;;;;;;;;;;;;;;;;5296400;26;19935;-70
2024/05/02 08:58:39;;;;;;;;;;;;;;;;;;5299741;27;19999;-71
2024/05/02 09:01:07;;;;;;;;;;;;;;;;;;5304903;26;19930;-70
2024/05/02 09:03:36;;;;;;;;;;;;;;;;;;5303862;26;19930;-67
2024/05/02 09:06:05;;;;;;;;;;;;;;;;;;5303032;27;20381;-67
2024/05/02 09:08:33;;;;;;;;;;;;;;;;;;5304328;26;19930;-66
2024/05/02 09:11:02;;;;;;;;;;;;;;;;;;5301700;26;20366;-67
2024/05/02 09:13:31;;;;;;;;;;;;;;;;;;5304778;26;19947;-67
2024/05/02 09:16:00;;;;;;;;;;;;;;;;;;5307865;26;19935;-66
2024/05/02 09:18:28;;;;;;;;;;;;;;;;;;5310479;26;20439;-66
2024/05/02 09:20:57;;;;;;;;;;;;;;;;;;5306682;26;19954;-66
2024/05/02 09:23:26;;;;;;;;;;;;;;;;;;5317816;26;19958;-66
2024/05/02 09:25:54;;;;;;;;;;;;;;;;;;5304599;26;19938;-67
2024/05/02 09:28:23;;;;;;;;;;;;;;;;;;5310663;26;20449;-67
2024/05/02 09:30:52;;;;;;;;;;;;;;;;;;5301715;26;19931;-66
2024/05/02 09:33:20;;;;;;;;;;;;;;;;;;5296699;26;19938;-66
2024/05/02 09:35:49;;;;;;;;;;;;;;;;;;5305520;26;19935;-66
2024/05/02 09:38:18;;;;;;;;;;;;;;;;;;5314876;26;19945;-67
2024/05/02 09:40:46;;;;;;;;;;;;;;;;;;5317905;26;19981;-66
2024/05/02 09:43:16;;;;;;;;;;;;;;;;;;5305321;26;20522;-67
2024/05/02 09:45:45;;;;;;;;;;;;;;;;;;5307151;26;20468;-67
2024/05/02 09:48:14;;;;;;;;;;;;;;;;;;5305574;26;20265;-67
2024/05/02 09:50:42;;;;;;;;;;;;;;;;;;5304573;26;19965;-67
2024/05/02 09:53:11;;;;;;;;;;;;;;;;;;5303413;26;20238;-67
2024/05/02 09:55:40;;;;;;;;;;;;;;;;;;5303965;26;20369;-68
2024/05/02 09:58:09;;;;;;;;;;;;;;;;;;5303196;26;19942;-67
2024/05/02 10:00:37;;;;;;;;;;;;;;;;;;5304677;26;19934;-67
2024/05/02 10:03:06;;;;;;;;;;;;;;;;;;5306986;26;19930;-68
2024/05/02 10:05:35;;;;;;;;;;;;;;;;;;5304629;27;19931;-67
2024/05/02 10:08:04;;;;;;;;;;;;;;;;;;5304272;26;19930;-67
2024/05/02 10:10:32;;;;;;;;;;;;;;;;;;5306163;26;19937;-68
2024/05/02 10:13:02;;;;;;;;;;;;;;;;;;5304614;26;19930;-66
2024/05/02 10:15:31;;;;;;;;;;;;;;;;;;5301151;27;19935;-67
2024/05/02 10:18:00;;;;;;;;;;;;;;;;;;5303485;26;19971;-66
2024/05/02 10:20:28;;;;;;;;;;;;;;;;;;5304211;27;19931;-68
2024/05/02 10:22:57;;;;;;;;;;;;;;;;;;5302044;26;19931;-68
2024/05/02 10:25:26;;;;;;;;;;;;;;;;;;5320911;26;19934;-74
2024/05/02 10:27:55;;;;;;;;;;;;;;;;;;5318448;26;19930;-69
2024/05/02 10:30:24;;;;;;;;;;;;;;;;;;5311469;26;20269;-71
2024/05/02 10:32:53;;;;;;;;;;;;;;;;;;5301211;26;19930;-71
2024/05/02 10:35:21;;;;;;;;;;;;;;;;;;5287231;26;19931;-71
2024/05/02 10:37:50;;;;;;;;;;;;;;;;;;5304144;26;19976;-71
2024/05/02 10:40:19;;;;;;;;;;;;;;;;;;5321692;26;19930;-71
2024/05/02 10:42:47;;;;;;;;;;;;;;;;;;5313029;26;19934;-72
2024/05/02 10:45:16;;;;;;;;;;;;;;;;;;5301666;27;19930;-72
2024/05/02 10:47:45;;;;;;;;;;;;;;;;;;5302505;27;19930;-72
2024/05/02 10:50:14;;;;;;;;;;;;;;;;;;5303232;26;20278;-72
2024/05/02 10:52:42;;;;;;;;;;;;;;;;;;5303004;27;19939;-72
2024/05/02 10:55:11;;;;;;;;;;;;;;;;;;5303255;27;20420;-72
2024/05/02 10:57:40;;;;;;;;;;;;;;;;;;5298303;27;19938;-71
2024/05/02 11:00:08;;;;;;;;;;;;;;;;;;5303322;26;19931;-71
2024/05/02 11:02:37;;;;;;;;;;;;;;;;;;5303134;26;19946;-71
2024/05/02 11:05:06;;;;;;;;;;;;;;;;;;5302670;26;19931;-71
2024/05/02 11:07:34;;;;;;;;;;;;;;;;;;5301854;27;19931;-71
2024/05/02 11:10:04;;;;;;;;;;;;;;;;;;5303919;26;19931;-71
2024/05/02 11:12:33;;;;;;;;;;;;;;;;;;5304640;26;19931;-71
2024/05/02 11:15:02;;;;;;;;;;;;;;;;;;5306713;26;19930;-72
2024/05/02 11:17:31;;;;;;;;;;;;;;;;;;5307677;26;19938;-72
2024/05/02 11:20:00;;;;;;;;;;;;;;;;;;5300319;27;19935;-71
2024/05/02 11:22:29;;;;;;;;;;;;;;;;;;5306430;26;19937;-71
2024/05/02 11:24:57;;;;;;;;;;;;;;;;;;5304029;26;20238;-71
2024/05/02 11:27:26;;;;;;;;;;;;;;;;;;5310948;26;20373;-71
2024/05/02 11:29:55;;;;;;;;;;;;;;;;;;5305193;26;19930;-71
2024/05/02 11:32:23;;;;;;;;;;;;;;;;;;5306630;26;19938;-71
2024/05/02 11:34:52;;;;;;;;;;;;;;;;;;5303678;26;19934;-71
2024/05/02 11:37:21;;;;;;;;;;;;;;;;;;5305828;26;19930;-71
2024/05/02 11:39:49;;;;;;;;;;;;;;;;;;5307252;26;20374;-71
2024/05/02 11:42:18;;;;;;;;;;;;;;;;;;5314865;26;19938;-72
2024/05/02 11:44:47;;;;;;;;;;;;;;;;;;5311139;26;19930;-71
2024/05/02 11:47:15;;;;;;;;;;;;;;;;;;5313451;26;20250;-72
2024/05/02 11:49:44;;;;;;;;;;;;;;;;;;5305114;26;19934;-71
2024/05/02 11:52:13;;;;;;;;;;;;;;;;;;5304333;27;19938;-70
2024/05/02 11:54:43;;;;;;;;;;;;;;;;;;5305312;27;20222;-71
2024/05/02 11:57:12;;;;;;;;;;;;;;;;;;5304247;27;19930;-71
2024/05/02 11:59:40;;;;;;;;;;;;;;;;;;5303851;26;20259;-70
2024/05/02 12:02:10;;;;;;;;;;;;;;;;;;5303325;26;19930;-71
2024/05/02 12:04:38;;;;;;;;;;;;;;;;;;5310627;26;19930;-71
2024/05/02 12:07:07;;;;;;;;;;;;;;;;;;5302879;27;19934;-71
2024/05/02 12:09:36;;;;;;;;;;;;;;;;;;5310331;26;19938;-72
2024/05/02 12:12:04;;;;;;;;;;;;;;;;;;5303076;26;20400;-71
2024/05/02 12:14:33;;;;;;;;;;;;;;;;;;5310506;26;19930;-71
2024/05/02 12:17:02;;;;;;;;;;;;;;;;;;5304290;26;19930;-72
2024/05/02 12:19:31;;;;;;;;;;;;;;;;;;5296008;26;19938;-73
2024/05/02 12:22:00;;;;;;;;;;;;;;;;;;5299017;26;19937;-74
2024/05/02 12:24:28;;;;;;;;;;;;;;;;;;5305843;26;19937;-71
2024/05/02 12:26:57;;;;;;;;;;;;;;;;;;5301948;26;20009;-70
2024/05/02 12:29:26;;;;;;;;;;;;;;;;;;5302062;26;20409;-70
2024/05/02 12:31:54;;;;;;;;;;;;;;;;;;5302164;27;19942;-71
2024/05/02 12:34:23;;;;;;;;;;;;;;;;;;5298892;26;19931;-73
2024/05/02 12:36:52;;;;;;;;;;;;;;;;;;5300228;26;20254;-72
2024/05/02 12:39:20;;;;;;;;;;;;;;;;;;5301300;27;19930;-75
2024/05/02 12:41:49;;;;;;;;;;;;;;;;;;5301116;26;19937;-74
2024/05/02 12:44:18;;;;;;;;;;;;;;;;;;5302057;27;19931;-74
2024/05/02 12:46:47;;;;;;;;;;;;;;;;;;5300937;26;19931;-72
2024/05/02 12:49:15;;;;;;;;;;;;;;;;;;5301545;27;20450;-73
2024/05/02 12:51:44;;;;;;;;;;;;;;;;;;5303956;26;20259;-73
2024/05/02 12:54:13;;;;;;;;;;;;;;;;;;5293215;26;19931;-73
2024/05/02 12:56:41;;;;;;;;;;;;;;;;;;5299064;27;19937;-74
2024/05/02 12:59:10;;;;;;;;;;;;;;;;;;5301358;26;19996;-72
2024/05/02 13:01:39;;;;;;;;;;;;;;;;;;5301555;27;20258;-72
2024/05/02 13:04:08;;;;;;;;;;;;;;;;;;5299474;26;19931;-71
2024/05/02 13:06:36;;;;;;;;;;;;;;;;;;5302088;27;19950;-71
2024/05/02 13:09:05;;;;;;;;;;;;;;;;;;5302647;26;20385;-72
2024/05/02 13:11:34;;;;;;;;;;;;;;;;;;5299830;27;19930;-71
2024/05/02 13:14:03;;;;;;;;;;;;;;;;;;5286078;26;19931;-72
2024/05/02 13:16:31;;;;;;;;;;;;;;;;;;5302538;26;20405;-74
2024/05/02 13:19:00;;;;;;;;;;;;;;;;;;5306074;26;19931;-74
2024/05/02 13:21:29;;;;;;;;;;;;;;;;;;5307521;26;19931;-75
2024/05/02 13:23:57;;;;;;;;;;;;;;;;;;5306148;27;19942;-74
2024/05/02 13:26:26;;;;;;;;;;;;;;;;;;5306276;27;20219;-74
2024/05/02 13:28:56;;;;;;;;;;;;;;;;;;5304232;26;19938;-74
2024/05/02 13:31:24;;;;;;;;;;;;;;;;;;5315638;26;20069;-70
2024/05/02 13:33:53;;;;;;;;;;;;;;;;;;5306869;26;19931;-71
2024/05/02 13:36:22;;;;;;;;;;;;;;;;;;5307019;26;20352;-70
2024/05/02 13:38:51;;;;;;;;;;;;;;;;;;5304161;26;19938;-67
2024/05/02 13:41:20;;;;;;;;;;;;;;;;;;5308622;26;20506;-72
2024/05/02 13:43:49;;;;;;;;;;;;;;;;;;5301421;26;20278;-74
2024/05/02 13:46:18;;;;;;;;;;;;;;;;;;5309624;26;20021;-73
2024/05/02 13:48:46;;;;;;;;;;;;;;;;;;5305356;27;19930;-73
2024/05/02 13:51:15;;;;;;;;;;;;;;;;;;5305083;26;19938;-74
2024/05/02 13:53:44;;;;;;;;;;;;;;;;;;5302066;27;20642;-77
2024/05/02 13:56:12;;;;;;;;;;;;;;;;;;5304880;26;19931;-77
2024/05/02 13:58:41;;;;;;;;;;;;;;;;;;5308236;26;19938;-77
2024/05/02 14:01:10;;;;;;;;;;;;;;;;;;5310780;26;19934;-78
2024/05/02 14:03:39;;;;;;;;;;;;;;;;;;5303131;27;20361;-80
2024/05/02 14:06:07;;;;;;;;;;;;;;;;;;5305572;27;19930;-76
2024/05/02 14:08:36;;;;;;;;;;;;;;;;;;5313694;26;19930;-76
2024/05/02 14:11:05;;;;;;;;;;;;;;;;;;5303130;26;19930;-69
2024/05/02 14:13:33;;;;;;;;;;;;;;;;;;5307782;26;19932;-72
2024/05/02 14:16:04;;;;;;;;;;;;;;;;;;5302693;27;20411;-71
2024/05/02 14:18:32;;;;;;;;;;;;;;;;;;5302743;27;19935;-71
2024/05/02 14:21:01;;;;;;;;;;;;;;;;;;5305430;26;19930;-72
2024/05/02 14:23:30;;;;;;;;;;;;;;;;;;5299346;26;20334;-74
2024/05/02 14:25:58;;;;;;;;;;;;;;;;;;5299864;27;20384;-72
2024/05/02 14:28:27;;;;;;;;;;;;;;;;;;5296934;27;20382;-72
2024/05/02 14:30:56;;;;;;;;;;;;;;;;;;5303570;26;19945;-73
2024/05/02 14:33:24;;;;;;;;;;;;;;;;;;5296466;27;20393;-73
2024/05/02 14:35:53;;;;;;;;;;;;;;;;;;5300370;27;20368;-72
2024/05/02 14:38:22;;;;;;;;;;;;;;;;;;5302545;27;19937;-73
2024/05/02 14:40:51;;;;;;;;;;;;;;;;;;5301271;27;19942;-73
2024/05/02 14:43:19;;;;;;;;;;;;;;;;;;5302514;27;19939;-72
2024/05/02 14:45:48;;;;;;;;;;;;;;;;;;5299271;27;20223;-72
2024/05/02 14:48:17;;;;;;;;;;;;;;;;;;5305001;26;19930;-73
2024/05/02 14:50:47;;;;;;;;;;;;;;;;;;5304648;27;19934;-72
2024/05/02 14:53:15;;;;;;;;;;;;;;;;;;5301259;27;20398;-72
2024/05/02 14:55:44;;;;;;;;;;;;;;;;;;5301280;26;20810;-72
2024/05/02 14:58:13;;;;;;;;;;;;;;;;;;5304181;27;19937;-73
2024/05/02 15:00:42;;;;;;;;;;;;;;;;;;5304089;27;20387;-72
2024/05/02 15:03:10;;;;;;;;;;;;;;;;;;5304190;26;19934;-73
2024/05/02 15:05:40;;;;;;;;;;;;;;;;;;5301473;27;19930;-73
2024/05/02 15:08:09;;;;;;;;;;;;;;;;;;5304097;26;19931;-73
2024/05/02 15:10:37;;;;;;;;;;;;;;;;;;5301122;27;19934;-73
2024/05/02 15:13:06;;;;;;;;;;;;;;;;;;5300058;27;19931;-72
2024/05/02 15:15:35;;;;;;;;;;;;;;;;;;5300853;27;19945;-72
2024/05/02 15:18:03;;;;;;;;;;;;;;;;;;5303484;27;20508;-70
2024/05/02 15:20:32;;;;;;;;;;;;;;;;;;5302789;27;19930;-72
2024/05/02 15:23:03;;;;;;;;;;;;;;;;;;5297562;27;19930;-71
2024/05/02 15:25:31;;;;;;;;;;;;;;;;;;5302891;26;19946;-73
2024/05/02 15:28:00;;;;;;;;;;;;;;;;;;5301131;27;19931;-72
2024/05/02 15:30:29;;;;;;;;;;;;;;;;;;5302281;27;19937;-73
2024/05/02 15:32:59;;;;;;;;;;;;;;;;;;5304652;26;19942;-74
2024/05/02 15:35:27;;;;;;;;;;;;;;;;;;5304675;27;19950;-75
2024/05/02 15:37:56;;;;;;;;;;;;;;;;;;5307191;26;19931;-73
2024/05/02 15:40:25;;;;;;;;;;;;;;;;;;5301838;26;19930;-73
2024/05/02 15:42:54;;;;;;;;;;;;;;;;;;5301935;26;19938;-73
2024/05/02 15:45:22;;;;;;;;;;;;;;;;;;5295644;27;20011;-73
2024/05/02 15:47:51;;;;;;;;;;;;;;;;;;5297849;26;19930;-72
2024/05/02 15:50:20;;;;;;;;;;;;;;;;;;5300580;26;19938;-73
2024/05/02 15:52:48;;;;;;;;;;;;;;;;;;5294206;26;19937;-73
2024/05/02 15:55:17;;;;;;;;;;;;;;;;;;5291798;26;19930;-73
2024/05/02 15:57:46;;;;;;;;;;;;;;;;;;5299085;27;19941;-71
2024/05/02 16:00:14;;;;;;;;;;;;;;;;;;5301222;27;19930;-71
2024/05/02 16:02:43;;;;;;;;;;;;;;;;;;5285942;26;20434;-72
2024/05/02 16:05:12;;;;;;;;;;;;;;;;;;5304120;26;19931;-72
2024/05/02 16:07:41;;;;;;;;;;;;;;;;;;5304540;27;19938;-72
2024/05/02 16:10:09;;;;;;;;;;;;;;;;;;5311847;26;19941;-73
2024/05/02 16:12:38;;;;;;;;;;;;;;;;;;5306973;26;20302;-73
2024/05/02 16:15:07;;;;;;;;;;;;;;;;;;5302861;26;19930;-73
2024/05/02 16:17:36;;;;;;;;;;;;;;;;;;5314045;26;19938;-73
2024/05/02 16:20:05;;;;;;;;;;;;;;;;;;5302563;27;19949;-73
2024/05/02 16:22:34;;;;;;;;;;;;;;;;;;5304469;26;20411;-74
2024/05/02 16:25:02;;;;;;;;;;;;;;;;;;5303732;26;20281;-73
2024/05/02 16:27:31;;;;;;;;;;;;;;;;;;5309368;26;19930;-73
2024/05/02 16:30:00;;;;;;;;;;;;;;;;;;5299076;27;19934;-73
2024/05/02 16:32:28;;;;;;;;;;;;;;;;;;5302015;27;19937;-74
2024/05/02 16:34:57;;;;;;;;;;;;;;;;;;5304812;26;19942;-73
2024/05/02 16:37:26;;;;;;;;;;;;;;;;;;5309357;26;20284;-73
2024/05/02 16:39:54;;;;;;;;;;;;;;;;;;5297101;26;19942;-72
2024/05/02 16:42:23;;;;;;;;;;;;;;;;;;5292552;26;19931;-73
2024/05/02 16:44:52;;;;;;;;;;;;;;;;;;5297888;26;19938;-73
2024/05/02 16:47:20;;;;;;;;;;;;;;;;;;5295875;27;19942;-74
2024/05/02 16:49:49;;;;;;;;;;;;;;;;;;5301324;27;19938;-73
2024/05/02 16:52:18;;;;;;;;;;;;;;;;;;5297431;26;20447;-73
2024/05/02 16:54:47;;;;;;;;;;;;;;;;;;5301314;26;19931;-73